Time;durP1;ratioP1;P1;durP2;ratioP2;P2;SDS_P1;SDS_P2;PMS_P1;PMS_P2;Temp;Humidity;BMP_temperature;BMP_pressure;BME280_temperature;BME280_humidity;BME280_pressure;Samples;Min_cycle;Max_cycle;Signal;HPM_P1;HPM_P2
2022/11/09 00:02:33;;;;;;;1.83;1.30;;;;;;;20.63;53.11;96698.00;10512144;28;20469;-47
2022/11/09 00:07:53;;;;;;;2.03;1.40;;;;;;;20.61;53.12;96701.06;10520849;28;20128;-45
2022/11/09 00:13:12;;;;;;;1.50;1.40;;;;;;;20.61;53.07;96700.25;10520569;28;20063;-47
2022/11/09 00:18:33;;;;;;;1.98;1.42;;;;;;;20.59;53.08;96700.59;10528864;28;20519;-47
2022/11/09 00:23:53;;;;;;;1.92;1.25;;;;;;;20.58;52.98;96704.41;10544365;28;20047;-45
2022/11/09 00:29:12;;;;;;;1.70;1.42;;;;;;;20.57;53.06;96708.22;10529775;28;20052;-48
2022/11/09 00:34:31;;;;;;;1.58;1.48;;;;;;;20.55;53.08;96702.34;10530151;28;20052;-47
2022/11/09 00:39:51;;;;;;;1.48;1.20;;;;;;;20.54;53.05;96708.88;10528714;28;20049;-48
2022/11/09 00:45:11;;;;;;;1.77;1.40;;;;;;;20.53;53.02;96704.59;10508771;28;20070;-47
2022/11/09 00:50:31;;;;;;;2.25;1.50;;;;;;;20.51;52.96;96696.03;10526263;28;20403;-47
2022/11/09 00:56:00;;;;;;;1.55;1.42;;;;;;;20.51;52.94;96696.03;10525004;28;20052;-44
2022/11/09 01:01:20;;;;;;;1.67;1.40;;;;;;;20.49;53.00;96696.34;10520460;28;20052;-44
2022/11/09 01:06:39;;;;;;;1.58;1.30;;;;;;;20.48;53.09;96699.38;10541120;28;20056;-49
2022/11/09 01:11:59;;;;;;;1.65;1.38;;;;;;;20.47;53.09;96703.22;10509177;28;20105;-49
2022/11/09 01:17:20;;;;;;;1.48;1.38;;;;;;;20.45;53.08;96697.34;10522537;28;20044;-45
2022/11/09 01:22:40;;;;;;;1.85;1.60;;;;;;;20.44;53.02;96685.72;10528283;28;20060;-50
2022/11/09 01:28:00;;;;;;;1.38;1.25;;;;;;;20.42;52.99;96687.97;10530563;28;20051;-47
2022/11/09 01:33:20;;;;;;;1.45;1.10;;;;;;;20.41;52.92;96688.31;10545700;28;20453;-47
2022/11/09 01:38:40;;;;;;;1.35;1.13;;;;;;;20.41;53.07;96685.63;10539428;28;20059;-47
2022/11/09 01:44:10;;;;;;;1.80;1.60;;;;;;;20.39;53.05;96677.03;10522567;28;20399;-46
2022/11/09 01:49:39;;;;;;;1.30;1.20;;;;;;;20.37;53.07;96682.78;10510611;28;20070;-44
2022/11/09 01:55:04;;;;;;;1.60;1.30;;;;;;;20.36;53.09;96681.19;10529528;28;20049;-48
2022/11/09 02:00:23;;;;;;;1.70;1.60;;;;;;;20.35;53.00;96682.31;10483394;28;20045;-46
2022/11/09 02:05:43;;;;;;;1.63;1.42;;;;;;;20.32;53.14;96674.84;10514926;28;20060;-46
2022/11/09 02:11:07;;;;;;;1.50;1.30;;;;;;;20.33;52.99;96679.16;10528559;28;20040;-45
2022/11/09 02:16:28;;;;;;;1.27;1.17;;;;;;;20.31;53.06;96679.50;10528017;28;20056;-44
2022/11/09 02:21:49;;;;;;;1.35;1.25;;;;;;;20.30;53.03;96682.50;10502136;28;20060;-47
2022/11/09 02:27:09;;;;;;;1.30;1.20;;;;;;;20.29;53.01;96680.94;10525725;28;20048;-47
2022/11/09 02:32:30;;;;;;;1.58;1.40;;;;;;;20.28;52.88;96687.47;10517930;28;20507;-49
2022/11/09 02:37:51;;;;;;;2.70;1.50;;;;;;;20.26;52.96;96690.50;10503436;28;20549;-46
2022/11/09 02:43:12;;;;;;;1.30;1.13;;;;;;;20.26;52.88;96695.91;10498243;28;20044;-45
2022/11/09 02:48:32;;;;;;;1.42;1.33;;;;;;;20.24;53.04;96702.78;10512500;28;20060;-48
2022/11/09 02:53:51;;;;;;;1.50;1.40;;;;;;;20.23;52.88;96707.41;10532786;28;20487;-48
2022/11/09 02:59:14;;;;;;;1.40;1.30;;;;;;;20.22;52.78;96697.69;10484054;28;20075;-46
2022/11/09 03:04:34;;;;;;;1.55;1.45;;;;;;;20.20;52.81;96696.44;10517887;28;20052;-47
2022/11/09 03:09:55;;;;;;;1.23;1.13;;;;;;;20.19;52.80;96694.84;10522354;28;20109;-47
2022/11/09 03:15:17;;;;;;;1.40;1.30;;;;;;;20.17;52.72;96684.38;10494406;28;20710;-47
2022/11/09 03:20:38;;;;;;;1.35;1.25;;;;;;;20.16;52.81;96693.59;10510573;28;20048;-48
2022/11/09 03:25:58;;;;;;;1.42;1.33;;;;;;;20.15;52.75;96681.22;10536553;28;20040;-45
2022/11/09 03:31:18;;;;;;;1.52;1.42;;;;;;;20.13;52.86;96680.75;10512984;28;20391;-48
2022/11/09 03:36:40;;;;;;;1.35;1.20;;;;;;;20.12;52.80;96671.84;10510999;28;20059;-48
2022/11/09 03:42:00;;;;;;;1.45;1.30;;;;;;;20.11;52.85;96664.88;10503710;28;20056;-47
2022/11/09 03:47:19;;;;;;;1.98;1.40;;;;;;;20.10;52.81;96693.00;10527187;28;20044;-46
2022/11/09 03:52:39;;;;;;;1.50;1.40;;;;;;;20.09;52.92;96699.56;10529577;28;20657;-47
2022/11/09 03:57:59;;;;;;;1.20;1.10;;;;;;;20.08;52.83;96697.19;10520273;28;20404;-44
2022/11/09 04:03:18;;;;;;;1.30;1.20;;;;;;;20.06;52.82;96702.91;10495767;28;20044;-46
2022/11/09 04:08:37;;;;;;;1.48;1.38;;;;;;;20.05;52.81;96695.13;10521198;28;20059;-47
2022/11/09 04:13:57;;;;;;;1.67;1.20;;;;;;;20.05;52.75;96670.78;10507951;28;20396;-45
2022/11/09 04:19:17;;;;;;;1.45;1.35;;;;;;;20.02;52.79;96666.84;10522418;28;20036;-48
2022/11/09 04:24:36;;;;;;;1.50;1.40;;;;;;;20.03;52.81;96662.22;10512867;28;20053;-46
2022/11/09 04:29:55;;;;;;;1.40;1.30;;;;;;;20.01;52.78;96653.63;10522831;28;20048;-44
2022/11/09 04:35:15;;;;;;;1.30;1.20;;;;;;;20.00;52.78;96660.19;10516463;28;20060;-48
2022/11/09 04:40:35;;;;;;;1.40;1.30;;;;;;;20.00;52.81;96662.88;10511663;28;20053;-48
2022/11/09 04:45:58;;;;;;;1.38;1.27;;;;;;;19.97;52.75;96677.06;10515005;28;20422;-48
2022/11/09 04:51:18;;;;;;;1.25;1.15;;;;;;;19.98;52.68;96711.88;10495775;28;20045;-45
2022/11/09 04:56:37;;;;;;;1.30;1.20;;;;;;;19.94;52.59;96717.16;10513234;28;20041;-45
2022/11/09 05:01:57;;;;;;;1.60;1.35;;;;;;;19.93;52.70;96709.38;10523834;28;20044;-46
2022/11/09 05:07:16;;;;;;;1.20;1.10;;;;;;;19.93;52.65;96704.78;10536766;28;20117;-47
2022/11/09 05:12:35;;;;;;;1.48;1.38;;;;;;;19.92;53.00;96714.00;10537146;28;20486;-45
2022/11/09 05:17:54;;;;;;;1.20;1.10;;;;;;;19.92;53.29;96710.50;10538833;28;20047;-46
2022/11/09 05:28:52;;;;;;;1.25;1.15;;;;;;;19.89;53.23;96697.63;10501885;28;20063;-46
2022/11/09 05:34:13;;;;;;;1.40;1.30;;;;;;;19.88;53.01;96706.88;10497718;28;20075;-46
2022/11/09 05:39:32;;;;;;;1.50;1.40;;;;;;;19.88;53.23;96704.94;10517752;28;20060;-46
2022/11/09 05:44:52;;;;;;;3.90;1.50;;;;;;;19.87;52.92;96705.28;10528410;28;20098;-46
2022/11/09 05:50:13;;;;;;;1.52;1.42;;;;;;;19.87;53.01;96708.75;10493852;28;20041;-46
2022/11/09 05:55:33;;;;;;;2.47;1.30;;;;;;;19.87;52.89;96684.44;10508871;28;20094;-46
2022/11/09 06:00:52;;;;;;;1.73;1.35;;;;;;;19.87;53.08;96699.88;10508158;28;20109;-47
2022/11/09 06:06:14;;;;;;;2.03;1.67;;;;;;;19.88;52.95;96691.44;10496864;28;20053;-47
2022/11/09 06:11:34;;;;;;;5.22;2.28;;;;;;;19.89;52.85;96719.25;10522652;28;20044;-47
2022/11/09 06:16:53;;;;;;;7.03;2.83;;;;;;;19.88;52.83;96717.69;10516314;28;20510;-47
2022/11/09 06:22:12;;;;;;;6.88;3.00;;;;;;;19.87;52.89;96722.28;10542941;28;20059;-44
2022/11/09 06:27:32;;;;;;;9.35;3.50;;;;;;;19.90;52.93;96721.63;10513817;28;20032;-46
2022/11/09 06:32:57;;;;;;;8.40;3.17;;;;;;;19.90;53.00;96718.94;10528964;28;20052;-45
2022/11/09 06:38:16;;;;;;;10.60;3.53;;;;;;;19.92;53.02;96707.78;10530460;28;20514;-45
2022/11/09 06:43:36;;;;;;;11.85;3.67;;;;;;;19.92;53.12;96697.75;10534992;28;20051;-46
2022/11/09 06:48:55;;;;;;;10.80;3.25;;;;;;;19.94;53.04;96702.84;10518478;28;20041;-45
2022/11/09 06:54:15;;;;;;;7.80;3.58;;;;;;;19.95;53.31;96704.41;10519232;28;20060;-45
2022/11/09 06:59:35;;;;;;;11.13;3.58;;;;;;;19.97;53.25;96720.31;10527489;28;20056;-47
2022/11/09 07:04:54;;;;;;;10.48;3.88;;;;;;;19.98;53.38;96724.63;10516990;28;20040;-45
2022/11/09 07:10:15;;;;;;;8.10;3.58;;;;;;;19.99;53.29;96737.78;10500492;28;20098;-44
2022/11/09 07:15:36;;;;;;;8.20;3.42;;;;;;;20.01;53.37;96748.28;10517951;28;20106;-44
2022/11/09 07:20:55;;;;;;;8.70;3.33;;;;;;;20.01;53.30;96735.53;10496699;28;20106;-44
2022/11/09 07:26:15;;;;;;;6.35;3.47;;;;;;;20.04;53.33;96728.72;10483689;28;20060;-45
2022/11/09 07:31:35;;;;;;;9.05;4.20;;;;;;;20.05;53.49;96732.97;10533141;28;20055;-48
2022/11/09 07:36:54;;;;;;;9.13;3.65;;;;;;;20.07;53.43;96722.63;10498560;28;20080;-44
2022/11/09 07:42:14;;;;;;;9.40;4.13;;;;;;;20.08;53.76;96735.03;10493024;28;20558;-45
2022/11/09 07:47:34;;;;;;;8.68;4.07;;;;;;;20.10;53.70;96747.09;10492552;28;20048;-47
2022/11/09 07:52:55;;;;;;;7.20;3.53;;;;;;;20.11;53.85;96737.88;10519729;28;20055;-46
2022/11/09 07:58:14;;;;;;;5.22;3.00;;;;;;;20.14;53.76;96748.03;10527188;28;20059;-44
2022/11/09 08:03:34;;;;;;;6.53;3.13;;;;;;;20.16;53.76;96763.94;10530461;28;20049;-45
2022/11/09 08:08:54;;;;;;;7.53;3.20;;;;;;;20.17;53.57;96770.94;10528807;28;20056;-45
2022/11/09 08:14:14;;;;;;;7.50;3.10;;;;;;;20.19;53.73;96767.88;10539802;28;20040;-44
2022/11/09 08:19:35;;;;;;;5.50;2.97;;;;;;;20.22;53.48;96794.28;10543525;28;20044;-44
2022/11/09 08:24:54;;;;;;;6.43;2.97;;;;;;;20.22;53.51;96765.31;10512591;28;20064;-45
2022/11/09 08:30:20;;;;;;;6.50;3.17;;;;;;;20.25;54.04;96729.50;10520350;28;20105;-46
2022/11/09 08:35:39;;;;;;;5.50;3.10;;;;;;;20.27;54.18;96756.22;10514559;28;20067;-43
2022/11/09 08:40:59;;;;;;;3.90;2.45;;;;;;;20.29;54.50;96776.41;10511076;28;20048;-44
2022/11/09 08:46:19;;;;;;;4.95;2.60;;;;;;;20.31;54.39;96781.50;10518151;28;20052;-44
2022/11/09 08:51:38;;;;;;;6.65;3.00;;;;;;;20.31;54.43;96784.22;10523039;28;20395;-46
2022/11/09 08:56:58;;;;;;;4.55;2.63;;;;;;;20.33;54.50;96787.38;10552449;28;20051;-48
2022/11/09 09:02:17;;;;;;;4.63;2.55;;;;;;;20.34;54.39;96783.53;10524888;28;20040;-44
2022/11/09 09:07:37;;;;;;;3.60;2.35;;;;;;;20.36;54.42;96784.00;10545977;28;20098;-46
2022/11/09 09:12:56;;;;;;;4.07;2.60;;;;;;;20.37;54.38;96793.72;10519113;28;20044;-44
2022/11/09 09:18:16;;;;;;;4.70;2.97;;;;;;;20.38;54.36;96805.31;10538277;28;20399;-46
2022/11/09 09:23:35;;;;;;;3.88;2.42;;;;;;;20.40;54.28;96803.84;10546214;28;20048;-44
2022/11/09 09:28:55;;;;;;;4.53;2.55;;;;;;;20.41;54.33;96796.56;10520167;28;20419;-44
2022/11/09 09:34:14;;;;;;;5.72;2.67;;;;;;;20.42;54.27;96806.25;10500321;28;20057;-45
2022/11/09 09:39:34;;;;;;;4.70;2.50;;;;;;;20.43;54.30;96814.03;10500387;28;20082;-44
2022/11/09 09:45:01;;;;;;;4.25;2.45;;;;;;;20.44;54.29;96822.94;10535412;28;20048;-44
2022/11/09 09:50:26;;;;;;;3.22;2.20;;;;;;;20.45;54.19;96814.50;10531855;28;20178;-46
2022/11/09 09:55:52;;;;;;;3.47;2.30;;;;;;;20.47;54.41;96833.13;10515709;28;20062;-45
2022/11/09 10:01:21;;;;;;;3.72;2.58;;;;;;;20.48;54.14;96830.09;10519606;28;20144;-44
2022/11/09 10:07:00;;;;;;;3.55;2.17;;;;;;;20.50;54.07;96832.44;10518426;28;20059;-45
2022/11/09 10:12:58;;;;;;;3.40;2.40;;;;;;;20.50;54.11;96829.72;10511880;28;20107;-44
2022/11/09 10:18:30;;;;;;;;;;;;;;;20.52;54.07;96822.06;10499532;28;20056;-46
2022/11/09 10:24:17;;;;;;;3.95;2.20;;;;;;;20.53;53.88;96810.94;10519870;28;19956;-46
2022/11/09 10:29:41;;;;;;;5.65;2.55;;;;;;;20.53;53.89;96805.53;10512777;28;20055;-44
2022/11/09 10:35:06;;;;;;;3.75;2.35;;;;;;;20.55;53.89;96805.19;10518385;28;20063;-45
2022/11/09 10:40:37;;;;;;;2.42;2.03;;;;;;;20.56;53.73;96801.34;10507097;28;20055;-44
2022/11/09 10:46:16;;;;;;;2.95;1.90;;;;;;;20.59;53.90;96818.88;10518915;28;20052;-45
2022/11/09 10:51:54;;;;;;;3.42;1.98;;;;;;;20.59;53.78;96824.28;10514272;28;20048;-44
2022/11/09 10:57:32;;;;;;;2.92;1.92;;;;;;;20.61;53.79;96797.69;10524209;28;20048;-46
2022/11/09 11:03:16;;;;;;;2.65;1.83;;;;;;;20.61;53.70;96790.38;10511310;28;20052;-46
2022/11/09 11:08:57;;;;;;;4.00;2.25;;;;;;;20.63;53.40;96782.72;10521130;28;20048;-45
2022/11/09 11:14:42;;;;;;;3.13;2.10;;;;;;;20.64;53.54;96781.59;10515856;28;20052;-45
2022/11/09 11:20:30;;;;;;;2.97;2.00;;;;;;;20.66;53.56;96768.53;10529259;28;20068;-45
2022/11/09 11:26:29;;;;;;;3.33;2.00;;;;;;;20.67;53.61;96763.88;10501506;28;20053;-46
2022/11/09 11:32:10;;;;;;;2.38;1.98;;;;;;;20.68;53.60;96754.63;10523844;28;20404;-47
2022/11/09 11:37:55;;;;;;;2.45;1.88;;;;;;;20.69;53.38;96748.09;10533989;28;20051;-47
2022/11/09 11:43:45;;;;;;;2.30;1.90;;;;;;;20.70;53.35;96728.84;10519838;28;20052;-46
2022/11/09 11:49:37;;;;;;;3.38;1.70;;;;;;;20.71;53.36;96716.88;10519384;28;20070;-47
2022/11/09 11:55:34;;;;;;;4.35;2.00;;;;;;;20.74;53.27;96729.75;10525777;28;20052;-47
2022/11/09 12:01:43;;;;;;;1.98;1.60;;;;;;;20.74;53.44;96727.03;10492196;28;20045;-45
2022/11/09 12:07:37;;;;;;;2.22;2.00;;;;;;;20.75;53.36;96717.00;10529819;28;20043;-45
2022/11/09 12:13:38;;;;;;;2.10;1.63;;;;;;;20.76;53.37;96698.81;10514643;28;20458;-48
2022/11/09 12:19:35;;;;;;;3.25;1.90;;;;;;;20.77;53.42;96716.66;10502261;28;20518;-46
2022/11/09 12:25:35;;;;;;;2.63;1.92;;;;;;;20.77;53.27;96719.38;10522063;28;20056;-45
2022/11/09 12:31:26;;;;;;;3.17;1.90;;;;;;;20.78;53.31;96710.13;10507923;28;20067;-46
2022/11/09 12:37:14;;;;;;;2.08;1.80;;;;;;;20.78;53.30;96696.56;10514602;28;20044;-47
2022/11/09 12:43:02;;;;;;;4.20;1.63;;;;;;;20.78;53.24;96693.88;10507140;28;20439;-45
2022/11/09 12:48:40;;;;;;;2.33;1.77;;;;;;;20.78;53.24;96691.16;10528264;28;20052;-45
2022/11/09 12:54:18;;;;;;;;;;;;;;;20.77;53.27;96692.31;10518041;28;20642;-46
2022/11/09 12:59:58;;;;;;;2.10;1.60;;;;;;;20.76;53.45;96690.69;10538012;28;20402;-45
2022/11/09 13:05:37;;;;;;;2.08;1.85;;;;;;;20.74;53.34;96691.84;10529669;28;20812;-46
2022/11/09 13:11:45;;;;;;;1.88;1.48;;;;;;;20.76;53.52;96693.41;10529333;28;20044;-47
2022/11/09 13:17:27;;;;;;;2.70;1.80;;;;;;;20.73;53.47;96703.78;10533976;28;20070;-45
2022/11/09 13:23:31;;;;;;;2.15;1.60;;;;;;;20.73;53.48;96706.50;10532077;28;20067;-46
2022/11/09 13:29:21;;;;;;;1.67;1.55;;;;;;;20.72;53.48;96702.22;10532227;28;20052;-45
2022/11/09 13:35:01;;;;;;;1.95;1.55;;;;;;;20.71;53.60;96708.75;10510837;28;20103;-46
2022/11/09 13:40:43;;;;;;;1.73;1.38;;;;;;;20.71;53.60;96697.13;10513285;28;20052;-46
2022/11/09 13:46:28;;;;;;;1.83;1.50;;;;;;;20.70;53.42;96696.34;10529518;28;20063;-46
2022/11/09 13:52:45;;;;;;;1.60;1.50;;;;;;;20.70;53.55;96692.84;10519604;28;20568;-46
2022/11/09 13:58:33;;;;;;;2.17;1.60;;;;;;;20.70;53.36;96682.03;10502557;28;20048;-46
2022/11/09 14:04:38;;;;;;;3.50;1.73;;;;;;;20.68;53.59;96682.34;10509991;28;20048;-43
2022/11/09 14:10:19;;;;;;;2.22;1.50;;;;;;;20.68;53.55;96665.31;10523427;28;20334;-44
2022/11/09 14:16:04;;;;;;;2.17;1.58;;;;;;;20.68;53.49;96679.66;10529121;28;20047;-43
2022/11/09 14:21:46;;;;;;;4.15;1.88;;;;;;;20.68;53.83;96674.25;10518301;28;20048;-44
2022/11/09 14:27:25;;;;;;;3.47;1.58;;;;;;;20.67;54.00;96667.22;10480731;28;20049;-44
2022/11/09 14:33:19;;;;;;;1.52;1.33;;;;;;;20.67;54.24;96659.09;10488932;28;20059;-45
2022/11/09 14:39:00;;;;;;;5.35;1.70;;;;;;;20.68;54.22;96668.00;10514231;28;20039;-45
2022/11/09 14:44:42;;;;;;;4.07;2.22;;;;;;;20.68;54.38;96668.00;10512087;28;20041;-45
2022/11/09 14:50:30;;;;;;;3.53;2.08;;;;;;;20.67;54.33;96669.94;10523683;28;20055;-49
2022/11/09 14:56:11;;;;;;;4.10;2.22;;;;;;;20.67;54.42;96674.56;10518483;28;20499;-49
2022/11/09 15:02:08;;;;;;;2.28;1.90;;;;;;;20.64;54.21;96684.16;10528997;28;20059;-46
2022/11/09 15:07:47;;;;;;;4.47;1.90;;;;;;;20.64;54.27;96684.16;10514739;28;20052;-45
2022/11/09 15:13:32;;;;;;;;;;;;;;;20.62;54.52;96686.41;10510603;28;20052;-47
2022/11/09 15:19:35;;;;;;;3.55;1.80;;;;;;;20.60;54.29;96683.25;10512147;28;19927;-46
2022/11/09 15:25:30;;;;;;;3.08;2.03;;;;;;;20.60;54.25;96671.59;10503900;28;20094;-49
2022/11/09 15:31:14;;;;;;;1.80;1.70;;;;;;;20.60;54.32;96672.41;10519652;28;20052;-49
2022/11/09 15:36:53;;;;;;;1.95;1.65;;;;;;;20.59;54.11;96676.22;10520226;28;20052;-48
2022/11/09 15:42:31;;;;;;;3.80;1.92;;;;;;;20.57;54.17;96677.66;10505069;28;20048;-44
2022/11/09 15:48:09;;;;;;;5.68;1.80;;;;;;;20.56;54.36;96679.56;10514241;28;20044;-47
2022/11/09 15:53:48;;;;;;;2.83;2.00;;;;;;;20.55;54.55;96680.69;10504861;28;20051;-45
2022/11/09 15:59:26;;;;;;;4.15;2.20;;;;;;;20.54;54.26;96679.91;10517799;28;20535;-46
2022/11/09 16:05:04;;;;;;;4.43;2.20;;;;;;;20.51;54.09;96696.81;10499918;28;20063;-47
2022/11/09 16:10:43;;;;;;;3.95;2.33;;;;;;;20.51;53.70;96702.22;10502951;28;20431;-45
2022/11/09 16:16:21;;;;;;;6.75;2.47;;;;;;;20.51;54.21;96721.16;10475126;28;20064;-45
2022/11/09 16:22:01;;;;;;;9.32;2.65;;;;;;;20.50;54.42;96727.72;10523425;28;20067;-45
2022/11/09 16:27:41;;;;;;;4.90;2.30;;;;;;;20.48;54.53;96734.56;10471838;28;20052;-46
2022/11/09 16:33:19;;;;;;;6.32;2.00;;;;;;;20.48;54.57;96739.97;10484467;28;20045;-45
2022/11/09 16:39:04;;;;;;;4.07;2.30;;;;;;;20.47;54.66;96749.22;10473687;28;20043;-45
2022/11/09 16:44:44;;;;;;;7.00;2.30;;;;;;;20.46;54.72;96756.53;10483994;28;20040;-45
2022/11/09 16:50:23;;;;;;;5.13;2.25;;;;;;;20.44;54.78;96756.06;10507798;28;20049;-44
2022/11/09 16:56:01;;;;;;;;;;;;;;;20.43;55.15;96753.72;10537494;28;20055;-48
2022/11/09 17:01:40;;;;;;;6.30;2.40;;;;;;;20.43;54.87;96751.03;10500853;28;19970;-45
2022/11/09 17:07:19;;;;;;;7.20;3.05;;;;;;;20.44;55.60;96755.28;10523843;28;20059;-45
2022/11/09 17:12:57;;;;;;;7.53;3.05;;;;;;;20.44;56.42;96771.53;10553847;28;20036;-47
2022/11/09 17:18:36;;;;;;;6.50;2.88;;;;;;;20.43;57.26;96759.91;10518365;28;20389;-45
2022/11/09 17:24:15;;;;;;;4.75;2.72;;;;;;;20.44;57.57;96768.81;10533559;28;20479;-44
2022/11/09 17:29:53;;;;;;;5.60;2.65;;;;;;;20.43;57.69;96775.38;10528382;28;20098;-46
2022/11/09 17:35:35;;;;;;;5.32;2.33;;;;;;;20.42;57.78;96777.25;10523416;28;20138;-47
2022/11/09 17:41:18;;;;;;;10.50;5.15;;;;;;;20.39;55.08;96775.22;10503802;28;20056;-46
2022/11/09 17:46:57;;;;;;;9.60;3.83;;;;;;;20.39;54.29;96787.97;10534002;28;20407;-46
2022/11/09 17:52:35;;;;;;;6.80;4.22;;;;;;;20.37;55.31;96799.13;10505191;28;20048;-44
2022/11/09 17:58:13;;;;;;;7.82;4.00;;;;;;;20.37;55.47;96818.06;10460729;28;20075;-45
2022/11/09 18:03:51;;;;;;;7.55;4.35;;;;;;;20.36;55.29;96813.75;10493464;28;20055;-45
2022/11/09 18:09:30;;;;;;;9.35;4.43;;;;;;;20.35;55.22;96823.78;10516481;28;20095;-50
2022/11/09 18:15:09;;;;;;;7.47;3.90;;;;;;;20.34;55.24;96827.59;10537270;28;20048;-48
2022/11/09 18:20:48;;;;;;;5.90;4.00;;;;;;;20.32;55.24;96829.84;10524796;28;20062;-46
2022/11/09 18:26:27;;;;;;;;;;;;;;;20.31;55.73;96822.88;10537458;28;20055;-48
2022/11/09 18:32:05;;;;;;;8.35;3.97;;;;;;;20.30;55.39;96832.09;10532811;28;20356;-47
2022/11/09 18:37:47;;;;;;;7.07;3.65;;;;;;;20.29;55.40;96830.53;10505713;28;20056;-45
2022/11/09 18:43:25;;;;;;;5.35;3.47;;;;;;;20.28;55.77;96837.03;10522646;28;20052;-48
2022/11/09 18:49:04;;;;;;;;;;;;;;;20.28;56.18;96842.44;10532224;28;20403;-47
2022/11/09 18:54:43;;;;;;;6.15;2.90;;;;;;;20.28;56.02;96849.78;10496542;28;19932;-44
2022/11/09 19:00:21;;;;;;;;;;;;;;;20.27;56.71;96862.53;10529170;28;20140;-46
2022/11/09 19:06:05;;;;;;;5.68;3.28;;;;;;;20.27;56.30;96859.81;10498249;28;19924;-46
2022/11/09 19:11:43;;;;;;;6.40;3.33;;;;;;;20.26;56.40;96858.22;10508714;28;20036;-48
2022/11/09 19:17:21;;;;;;;8.75;3.65;;;;;;;20.27;56.61;96870.63;10510931;28;20059;-47
2022/11/09 19:22:59;;;;;;;5.63;3.40;;;;;;;20.26;56.73;96863.63;10526293;28;20055;-47
2022/11/09 19:28:38;;;;;;;4.03;2.95;;;;;;;20.26;56.93;96869.03;10502715;28;20415;-48
2022/11/09 19:34:19;;;;;;;5.50;3.58;;;;;;;20.26;56.96;96871.75;10533125;28;20052;-48
2022/11/09 19:39:57;;;;;;;5.07;3.50;;;;;;;20.27;57.14;96880.69;10535637;28;20047;-47
2022/11/09 19:45:42;;;;;;;6.25;3.50;;;;;;;20.27;57.18;96886.88;10526318;28;20044;-49
2022/11/09 19:51:20;;;;;;;4.97;3.08;;;;;;;20.25;57.28;96886.41;10468478;28;20496;-47
2022/11/09 19:56:58;;;;;;;5.28;3.22;;;;;;;20.24;57.53;96897.53;10480293;28;20036;-49
2022/11/09 20:02:36;;;;;;;4.22;3.42;;;;;;;20.24;57.64;96898.34;10464200;28;20103;-48
2022/11/09 20:08:16;;;;;;;5.75;3.35;;;;;;;20.24;57.82;96905.66;10463449;28;20396;-48
2022/11/09 20:13:54;;;;;;;4.72;3.05;;;;;;;20.24;57.83;96906.44;10476089;28;20060;-49
2022/11/09 20:19:33;;;;;;;4.40;3.05;;;;;;;20.22;57.83;96903.28;10519848;28;20400;-45
2022/11/09 20:25:11;;;;;;;4.07;2.95;;;;;;;20.23;58.14;96917.59;10542131;28;20040;-48
2022/11/09 20:30:49;;;;;;;4.88;2.90;;;;;;;20.23;58.06;96917.59;10526277;28;20487;-46
2022/11/09 20:36:27;;;;;;;5.43;3.10;;;;;;;20.22;58.01;96921.41;10524779;28;20056;-48
2022/11/09 20:42:07;;;;;;;5.07;3.33;;;;;;;20.21;57.84;96923.34;10533355;28;20102;-47
2022/11/09 20:47:45;;;;;;;6.63;3.30;;;;;;;20.22;58.08;96918.72;10509678;28;20036;-48
2022/11/09 20:53:23;;;;;;;5.70;3.10;;;;;;;20.21;58.07;96915.22;10491523;28;20442;-48
2022/11/09 20:59:01;;;;;;;5.15;3.15;;;;;;;20.22;58.03;96921.41;10525114;28;20063;-47
2022/11/09 21:04:41;;;;;;;4.22;3.00;;;;;;;20.22;58.06;96921.41;10532389;28;20109;-46
2022/11/09 21:10:19;;;;;;;4.43;3.28;;;;;;;20.23;58.07;96923.81;10537106;28;20097;-47
2022/11/09 21:16:11;;;;;;;5.47;3.15;;;;;;;20.22;58.16;96924.91;10532454;28;20052;-49
2022/11/09 21:21:50;;;;;;;5.00;2.92;;;;;;;20.24;57.94;96930.00;10523347;28;20052;-46
2022/11/09 21:33:26;;;;;;;4.15;2.90;;;;;;;20.25;57.89;96940.50;10525347;28;20460;-47
2022/11/09 21:39:04;;;;;;;4.72;2.80;;;;;;;20.25;57.92;96926.19;10499390;28;20052;-45
2022/11/09 21:44:42;;;;;;;3.97;2.63;;;;;;;20.25;58.19;96921.56;10503263;28;20049;-46
2022/11/09 21:50:20;;;;;;;4.20;3.00;;;;;;;20.24;57.94;96919.97;10488242;28;20103;-45
2022/11/09 21:55:59;;;;;;;4.40;2.72;;;;;;;20.24;57.82;96913.78;10471818;28;20404;-45
2022/11/09 22:01:37;;;;;;;4.35;3.00;;;;;;;20.24;57.77;96919.19;10460063;28;20045;-46
2022/11/09 22:07:16;;;;;;;3.65;3.22;;;;;;;20.22;57.89;96930.31;10511907;28;20052;-47
2022/11/09 22:24:49;;;;;;;3.13;2.63;;;;;;;20.19;57.79;96933.69;10529491;28;20056;-46
2022/11/09 22:30:27;;;;;;;3.53;3.00;;;;;;;20.19;57.91;96941.81;10532841;28;20062;-44
2022/11/09 22:36:06;;;;;;;3.70;2.78;;;;;;;20.19;57.92;96941.81;10529829;28;20078;-45
2022/11/09 22:41:45;;;;;;;2.83;2.38;;;;;;;20.17;58.00;96946.75;10522891;28;20048;-45
2022/11/09 22:47:23;;;;;;;3.80;2.85;;;;;;;20.16;57.82;96953.25;10512694;28;20057;-45
2022/11/09 22:53:01;;;;;;;3.67;2.90;;;;;;;20.15;57.96;96962.50;10525178;28;20487;-46
2022/11/09 22:58:39;;;;;;;3.70;3.00;;;;;;;20.15;57.95;96955.19;10518187;28;20044;-45
2022/11/09 23:04:17;;;;;;;4.22;2.83;;;;;;;20.14;57.96;96959.00;10526157;28;20047;-45
2022/11/09 23:09:57;;;;;;;3.50;2.85;;;;;;;20.14;57.96;96963.63;10519586;28;20575;-45
2022/11/09 23:15:35;;;;;;;3.13;2.63;;;;;;;20.12;58.06;96969.34;10511828;28;20044;-45
2022/11/09 23:21:14;;;;;;;3.13;2.72;;;;;;;20.11;58.10;96984.00;10527495;28;20067;-45
2022/11/09 23:26:52;;;;;;;3.20;2.83;;;;;;;20.09;58.02;96978.13;10529401;28;20053;-47
2022/11/09 23:32:30;;;;;;;3.30;2.80;;;;;;;20.10;57.96;96978.91;10504184;28;20059;-47
2022/11/09 23:38:10;;;;;;;3.47;2.50;;;;;;;20.09;58.06;96988.94;10521633;28;20498;-48
2022/11/09 23:43:48;;;;;;;3.00;2.63;;;;;;;20.08;57.94;96992.75;10514432;28;20048;-45
2022/11/09 23:49:26;;;;;;;2.75;2.50;;;;;;;20.07;58.10;97002.00;10532999;28;20044;-45
2022/11/09 23:55:05;;;;;;;4.07;2.58;;;;;;;20.07;57.99;97009.28;10531408;28;20040;-44
